Time;durP1;ratioP1;P1;durP2;ratioP2;P2;SDS_P1;SDS_P2;PMS_P1;PMS_P2;Temp;Humidity;BMP_temperature;BMP_pressure;BME280_temperature;BME280_humidity;BME280_pressure;Samples;Min_cycle;Max_cycle;Signal;HPM_P1;HPM_P2
2023/07/22 00:02:13;;;;;;;11.60;5.35;;;14.70;99.90;;;;;;5033741;28;20090;-69
2023/07/22 00:04:38;;;;;;;9.45;4.72;;;14.70;99.90;;;;;;5032700;28;20088;-70
2023/07/22 00:07:05;;;;;;;9.55;4.97;;;14.70;99.90;;;;;;5033647;28;20056;-69
2023/07/22 00:09:33;;;;;;;9.77;4.68;;;14.70;99.90;;;;;;5034047;28;20434;-68
2023/07/22 00:11:59;;;;;;;7.13;4.25;;;14.70;99.90;;;;;;5033959;28;20076;-68
2023/07/22 00:14:25;;;;;;;8.15;4.35;;;14.70;99.90;;;;;;5033098;28;20049;-68
2023/07/22 00:16:51;;;;;;;11.57;5.15;;;14.70;99.90;;;;;;5033731;28;20052;-69
2023/07/22 00:19:16;;;;;;;6.95;4.53;;;14.70;99.90;;;;;;5032977;28;20049;-69
2023/07/22 00:21:42;;;;;;;9.68;4.82;;;14.70;99.90;;;;;;5033100;28;20414;-68
2023/07/22 00:24:08;;;;;;;7.68;3.85;;;14.70;99.90;;;;;;5032037;28;20099;-69
2023/07/22 00:26:34;;;;;;;9.45;4.53;;;14.70;99.90;;;;;;5032757;28;20045;-69
2023/07/22 00:29:00;;;;;;;7.28;4.20;;;14.70;99.90;;;;;;5032853;28;20057;-69
2023/07/22 00:31:27;;;;;;;8.63;4.35;;;14.70;99.90;;;;;;5032833;28;20049;-69
2023/07/22 00:33:53;;;;;;;9.15;4.18;;;14.70;99.90;;;;;;5033305;28;20041;-67
2023/07/22 00:36:18;;;;;;;9.55;5.15;;;14.70;99.90;;;;;;5033096;28;20064;-68
2023/07/22 00:38:44;;;;;;;9.27;4.15;;;14.70;99.90;;;;;;5032848;28;20097;-69
2023/07/22 00:41:11;;;;;;;7.93;3.90;;;14.60;99.90;;;;;;5015304;28;20056;-69
2023/07/22 00:43:38;;;;;;;8.77;4.05;;;14.60;99.90;;;;;;5033081;28;20088;-68
2023/07/22 00:46:04;;;;;;;6.75;3.95;;;14.50;99.90;;;;;;5033254;28;20056;-68
2023/07/22 00:48:31;;;;;;;9.65;4.10;;;14.50;99.90;;;;;;5030965;28;20053;-68
2023/07/22 00:50:57;;;;;;;7.47;3.47;;;14.50;99.90;;;;;;5033233;28;20045;-68
2023/07/22 00:53:23;;;;;;;8.82;3.28;;;14.50;99.90;;;;;;5032662;28;20484;-68
2023/07/22 00:55:49;;;;;;;7.72;4.00;;;14.40;99.90;;;;;;5032943;28;20107;-68
2023/07/22 00:58:15;;;;;;;6.60;3.33;;;14.40;99.90;;;;;;5015421;28;20038;-69
2023/07/22 01:00:41;;;;;;;7.90;3.85;;;14.40;99.90;;;;;;5032999;28;20042;-69
2023/07/22 01:03:07;;;;;;;5.90;3.78;;;14.40;99.90;;;;;;5033038;28;20206;-68
2023/07/22 01:05:35;;;;;;;6.70;3.58;;;14.40;99.90;;;;;;5032450;28;20144;-67
2023/07/22 01:08:01;;;;;;;7.57;3.70;;;14.40;99.90;;;;;;5031710;28;20545;-68
2023/07/22 01:10:28;;;;;;;7.32;3.47;;;14.30;99.90;;;;;;5032452;28;20077;-67
2023/07/22 01:12:55;;;;;;;9.68;3.80;;;14.30;99.90;;;;;;5015460;28;20052;-68
2023/07/22 01:15:21;;;;;;;8.70;4.03;;;14.30;99.90;;;;;;5032273;28;20080;-68
2023/07/22 01:17:47;;;;;;;11.25;4.90;;;14.30;99.90;;;;;;5032763;28;20081;-68
2023/07/22 01:20:13;;;;;;;9.23;4.57;;;14.30;99.90;;;;;;5031705;28;20054;-70
2023/07/22 01:22:42;;;;;;;9.23;4.75;;;14.30;99.90;;;;;;5032453;28;20096;-68
2023/07/22 01:25:08;;;;;;;11.90;5.68;;;14.30;99.90;;;;;;5031217;28;20081;-68
2023/07/22 01:27:34;;;;;;;10.95;5.25;;;14.20;99.90;;;;;;5030936;28;20127;-67
2023/07/22 01:30:02;;;;;;;8.88;5.32;;;14.20;99.90;;;;;;5032618;28;20184;-67
2023/07/22 01:32:28;;;;;;;13.82;6.00;;;14.20;99.90;;;;;;5031876;28;20415;-68
2023/07/22 01:34:53;;;;;;;11.15;5.05;;;14.20;99.90;;;;;;5032206;28;20048;-68
2023/07/22 01:37:19;;;;;;;11.25;5.15;;;14.10;99.90;;;;;;5031123;28;20120;-69
2023/07/22 01:39:45;;;;;;;9.07;4.57;;;14.10;99.90;;;;;;5032365;28;20045;-68
2023/07/22 01:42:10;;;;;;;10.02;5.25;;;14.10;99.90;;;;;;5016392;28;20387;-68
2023/07/22 01:44:36;;;;;;;9.63;5.00;;;14.10;99.90;;;;;;5032371;28;20060;-68
2023/07/22 01:47:03;;;;;;;9.05;5.22;;;14.00;99.90;;;;;;5030976;28;20368;-68
2023/07/22 01:49:29;;;;;;;10.15;5.25;;;14.00;99.90;;;;;;5031870;28;20045;-67
2023/07/22 01:51:54;;;;;;;7.88;4.88;;;14.00;99.90;;;;;;5031973;28;20091;-68
2023/07/22 01:54:20;;;;;;;12.07;5.63;;;14.00;99.90;;;;;;5031802;28;20080;-68
2023/07/22 01:56:46;;;;;;;11.43;5.95;;;14.00;99.90;;;;;;5032080;28;20049;-68
2023/07/22 01:59:11;;;;;;;9.35;5.72;;;13.90;99.90;;;;;;5030006;28;20376;-68
2023/07/22 02:01:37;;;;;;;9.05;4.88;;;13.90;99.90;;;;;;5031707;28;20057;-68
2023/07/22 02:04:03;;;;;;;14.30;5.47;;;13.90;99.90;;;;;;5032039;28;20475;-68
2023/07/22 02:06:28;;;;;;;13.57;5.35;;;13.90;99.90;;;;;;4997671;28;20053;-68
2023/07/22 02:08:55;;;;;;;12.63;5.57;;;13.90;99.90;;;;;;5014434;28;20041;-69
2023/07/22 02:11:21;;;;;;;9.52;5.50;;;13.80;99.90;;;;;;5031333;28;20045;-70
2023/07/22 02:13:47;;;;;;;9.05;5.30;;;13.80;99.90;;;;;;5031770;28;20502;-68
2023/07/22 02:16:12;;;;;;;9.88;5.45;;;13.80;99.90;;;;;;5014108;28;20128;-68
2023/07/22 02:18:38;;;;;;;12.18;5.05;;;13.80;99.90;;;;;;5031210;28;20067;-68
2023/07/22 02:21:04;;;;;;;9.00;4.95;;;13.70;99.90;;;;;;5031871;28;20069;-67
2023/07/22 02:23:30;;;;;;;11.40;5.80;;;13.70;99.90;;;;;;5031298;28;20050;-70
2023/07/22 02:25:55;;;;;;;9.80;5.55;;;13.70;99.90;;;;;;5030687;28;20045;-68
2023/07/22 02:28:22;;;;;;;10.63;5.05;;;13.60;99.90;;;;;;5030666;28;20077;-68
2023/07/22 02:30:50;;;;;;;9.77;4.97;;;13.60;99.90;;;;;;5031721;28;20046;-68
2023/07/22 02:33:15;;;;;;;9.30;5.22;;;13.60;99.90;;;;;;5031826;28;20052;-68
2023/07/22 02:35:42;;;;;;;10.00;5.07;;;13.60;99.90;;;;;;5031155;28;20045;-67
2023/07/22 02:38:08;;;;;;;8.48;4.65;;;13.50;99.90;;;;;;5031723;28;20249;-67
2023/07/22 02:40:37;;;;;;;8.15;4.97;;;13.50;99.90;;;;;;5029998;28;20132;-68
2023/07/22 02:43:03;;;;;;;12.23;4.88;;;13.50;99.90;;;;;;5030786;28;20407;-68
2023/07/22 02:45:29;;;;;;;10.05;4.70;;;13.50;99.90;;;;;;5031298;28;20135;-69
2023/07/22 02:47:55;;;;;;;8.82;4.93;;;13.50;99.90;;;;;;5031494;28;20140;-68
2023/07/22 02:50:21;;;;;;;10.13;5.10;;;13.40;99.90;;;;;;5031893;28;20132;-68
2023/07/22 02:52:47;;;;;;;9.13;4.63;;;13.40;99.90;;;;;;5031225;28;20045;-68
2023/07/22 02:55:15;;;;;;;10.63;5.10;;;13.40;99.90;;;;;;5030693;28;20133;-68
2023/07/22 02:57:41;;;;;;;8.95;4.88;;;13.40;99.90;;;;;;5031203;28;20103;-69
2023/07/22 03:00:08;;;;;;;7.78;4.32;;;13.40;99.90;;;;;;5031375;28;20119;-67
2023/07/22 03:02:38;;;;;;;9.95;4.88;;;13.40;99.90;;;;;;5030337;28;20045;-68
2023/07/22 03:05:07;;;;;;;9.45;4.60;;;13.30;99.90;;;;;;5030292;28;20201;-68
2023/07/22 03:07:34;;;;;;;8.38;4.68;;;13.30;99.90;;;;;;5031062;28;20414;-68
2023/07/22 03:10:00;;;;;;;7.85;4.55;;;13.30;99.90;;;;;;5031352;28;20046;-68
2023/07/22 03:12:27;;;;;;;8.15;4.47;;;13.30;99.90;;;;;;5033594;28;20438;-68
2023/07/22 03:14:53;;;;;;;12.13;5.10;;;13.30;99.90;;;;;;5033632;28;20089;-67
2023/07/22 03:17:19;;;;;;;9.23;4.40;;;13.30;99.90;;;;;;5050102;28;20518;-67
2023/07/22 03:19:45;;;;;;;7.63;4.40;;;13.30;99.90;;;;;;5034553;28;20083;-68
2023/07/22 03:22:21;;;;;;;9.38;4.60;;;13.20;99.90;;;;;;5034802;28;20049;-68
2023/07/22 03:24:47;;;;;;;8.93;4.20;;;13.20;99.90;;;;;;5034355;28;20049;-68
2023/07/22 03:27:15;;;;;;;10.88;4.88;;;13.20;99.90;;;;;;5034787;28;20171;-68
2023/07/22 03:29:41;;;;;;;8.30;4.97;;;13.20;99.90;;;;;;5034349;28;20083;-70
2023/07/22 03:32:07;;;;;;;8.38;4.65;;;13.20;99.90;;;;;;5034586;28;20128;-68
2023/07/22 03:34:33;;;;;;;10.70;5.00;;;13.10;99.90;;;;;;5034326;28;20048;-71
2023/07/22 03:36:59;;;;;;;8.48;4.75;;;13.10;99.90;;;;;;5034356;28;20049;-69
2023/07/22 03:39:25;;;;;;;10.80;5.50;;;13.10;99.90;;;;;;5016662;28;20045;-68
2023/07/22 03:41:50;;;;;;;9.43;5.45;;;13.10;99.90;;;;;;5034193;28;20470;-69
2023/07/22 03:44:16;;;;;;;10.15;5.15;;;13.10;99.90;;;;;;5033295;28;20546;-68
2023/07/22 03:46:42;;;;;;;8.75;5.22;;;13.10;99.90;;;;;;5033981;28;20042;-69
2023/07/22 03:49:08;;;;;;;9.93;5.72;;;13.10;99.90;;;;;;5033350;28;20088;-68
2023/07/22 03:51:33;;;;;;;10.45;5.60;;;13.10;99.90;;;;;;5033094;28;20045;-69
2023/07/22 03:53:59;;;;;;;9.70;5.72;;;13.10;99.90;;;;;;5032858;28;20049;-68
2023/07/22 03:56:25;;;;;;;13.15;6.13;;;13.10;99.90;;;;;;5034150;28;20049;-67
2023/07/22 03:58:52;;;;;;;9.13;5.45;;;13.10;99.90;;;;;;5033037;28;20045;-67
2023/07/22 04:01:18;;;;;;;10.43;5.90;;;13.20;99.90;;;;;;5034293;28;20124;-67
2023/07/22 04:03:43;;;;;;;12.68;5.72;;;13.20;99.90;;;;;;5033692;28;20080;-67
2023/07/22 04:06:09;;;;;;;9.70;5.10;;;13.20;99.90;;;;;;5033146;28;20483;-67
2023/07/22 04:08:35;;;;;;;8.20;5.15;;;13.20;99.90;;;;;;5032744;28;20050;-67
2023/07/22 04:11:01;;;;;;;9.02;4.65;;;13.30;99.90;;;;;;5033468;28;20047;-67
2023/07/22 04:13:27;;;;;;;11.55;5.03;;;13.30;99.90;;;;;;5033650;28;20037;-68
2023/07/22 04:15:53;;;;;;;9.50;4.57;;;13.40;99.90;;;;;;5032340;28;20045;-68
2023/07/22 04:18:19;;;;;;;8.25;4.85;;;13.40;99.90;;;;;;5015925;28;20049;-68
2023/07/22 04:20:46;;;;;;;9.20;5.07;;;13.50;99.90;;;;;;5033181;28;20049;-67
2023/07/22 04:23:12;;;;;;;6.75;4.30;;;13.50;99.90;;;;;;5033407;28;20045;-68
2023/07/22 04:25:45;;;;;;;9.27;3.88;;;13.60;99.90;;;;;;5032328;28;20042;-68
2023/07/22 04:28:10;;;;;;;7.47;3.70;;;13.60;99.90;;;;;;5033498;28;20120;-68
2023/07/22 04:30:37;;;;;;;8.65;4.57;;;13.70;99.90;;;;;;5032951;28;20056;-68
2023/07/22 04:33:03;;;;;;;9.05;4.70;;;13.70;99.90;;;;;;5033039;28;20045;-68
2023/07/22 04:35:33;;;;;;;6.75;4.03;;;13.70;99.90;;;;;;5033025;28;20042;-68
2023/07/22 04:37:59;;;;;;;9.80;4.63;;;13.80;99.90;;;;;;5032873;28;20056;-67
2023/07/22 04:40:25;;;;;;;6.60;4.00;;;13.90;99.90;;;;;;5033037;28;20099;-68
2023/07/22 04:42:51;;;;;;;8.15;4.13;;;13.90;99.90;;;;;;5032218;28;20080;-68
2023/07/22 04:45:20;;;;;;;10.68;3.80;;;14.00;99.90;;;;;;5033214;28;20049;-67
2023/07/22 04:47:48;;;;;;;8.27;3.75;;;14.00;99.90;;;;;;5031811;28;20056;-68
2023/07/22 04:50:14;;;;;;;6.45;3.65;;;14.10;99.90;;;;;;5033165;28;20120;-68
2023/07/22 04:52:47;;;;;;;7.65;4.05;;;14.10;99.90;;;;;;5033062;28;20077;-68
2023/07/22 04:55:13;;;;;;;7.05;3.85;;;14.00;99.90;;;;;;5033106;28;20049;-68
2023/07/22 04:57:44;;;;;;;7.63;3.80;;;14.00;99.90;;;;;;5032672;28;20128;-69
2023/07/22 05:00:14;;;;;;;7.07;4.15;;;14.00;99.90;;;;;;5032620;28;20072;-67
2023/07/22 05:02:40;;;;;;;8.98;4.68;;;14.00;99.90;;;;;;5031802;28;20057;-68
2023/07/22 05:05:06;;;;;;;9.52;4.35;;;14.00;99.90;;;;;;5031321;28;20045;-67
2023/07/22 05:07:32;;;;;;;9.43;4.93;;;14.00;99.90;;;;;;5031665;28;20368;-68
2023/07/22 05:09:58;;;;;;;9.27;5.00;;;14.00;99.90;;;;;;5032469;28;20491;-68
2023/07/22 05:12:24;;;;;;;8.73;5.82;;;14.00;99.90;;;;;;5032299;28;20064;-68
2023/07/22 05:14:49;;;;;;;10.50;5.20;;;14.10;99.90;;;;;;5032164;28;20045;-67
2023/07/22 05:17:15;;;;;;;10.60;5.80;;;14.10;99.90;;;;;;5032600;28;20046;-68
2023/07/22 05:19:41;;;;;;;12.05;5.97;;;14.10;99.90;;;;;;5030894;28;20098;-68
2023/07/22 05:22:07;;;;;;;10.57;5.35;;;14.20;99.90;;;;;;5031181;28;20057;-68
2023/07/22 05:24:33;;;;;;;9.25;5.53;;;14.30;99.90;;;;;;5032509;28;20051;-67
2023/07/22 05:26:59;;;;;;;9.23;5.57;;;14.40;99.90;;;;;;5032076;28;20132;-68
2023/07/22 05:29:24;;;;;;;11.35;6.03;;;14.50;99.90;;;;;;5032330;28;20049;-68
2023/07/22 05:31:50;;;;;;;8.57;5.30;;;14.80;99.90;;;;;;5031723;28;20076;-69
2023/07/22 05:34:16;;;;;;;8.60;5.95;;;15.30;99.90;;;;;;5014359;28;20120;-68
2023/07/22 05:36:42;;;;;;;10.15;5.38;;;16.00;99.90;;;;;;5032366;28;20064;-68
2023/07/22 05:39:07;;;;;;;8.20;5.60;;;16.70;99.90;;;;;;5031747;28;20049;-68
2023/07/22 05:41:33;;;;;;;9.48;5.68;;;17.20;99.90;;;;;;5031040;28;20041;-68
2023/07/22 05:43:59;;;;;;;9.10;5.70;;;17.60;99.90;;;;;;5031532;28;20050;-68
2023/07/22 05:46:25;;;;;;;8.98;5.50;;;18.00;99.90;;;;;;5031988;28;20164;-68
2023/07/22 05:48:51;;;;;;;7.82;5.22;;;18.40;99.90;;;;;;5032009;28;20048;-70
2023/07/22 05:51:17;;;;;;;7.28;5.20;;;18.70;99.90;;;;;;5030922;28;20489;-68
2023/07/22 05:53:43;;;;;;;8.32;5.47;;;19.00;99.90;;;;;;5031117;28;20068;-69
2023/07/22 05:56:09;;;;;;;11.45;6.00;;;19.20;99.90;;;;;;5031526;28;20124;-68
2023/07/22 05:58:35;;;;;;;10.93;5.43;;;19.30;99.90;;;;;;5032011;28;20473;-68
2023/07/22 06:01:01;;;;;;;8.57;5.63;;;19.30;99.90;;;;;;5031636;28;20067;-68
2023/07/22 06:03:26;;;;;;;9.70;5.75;;;19.40;99.90;;;;;;5032117;28;20488;-68
2023/07/22 06:05:52;;;;;;;9.05;5.85;;;19.40;99.90;;;;;;5030580;28;20189;-70
2023/07/22 06:08:18;;;;;;;8.93;5.28;;;19.70;99.90;;;;;;5031025;28;20049;-68
2023/07/22 06:10:44;;;;;;;9.05;5.78;;;19.90;99.90;;;;;;5030870;28;20044;-69
2023/07/22 06:13:09;;;;;;;7.47;5.72;;;20.10;99.90;;;;;;5031654;28;20045;-69
2023/07/22 06:15:35;;;;;;;9.85;5.90;;;20.30;99.90;;;;;;5030620;28;20072;-69
2023/07/22 06:18:01;;;;;;;11.00;5.50;;;20.50;99.90;;;;;;5034457;28;20049;-69
2023/07/22 06:20:28;;;;;;;6.70;5.18;;;20.40;99.90;;;;;;5034257;28;20088;-68
2023/07/22 06:22:54;;;;;;;7.95;5.35;;;20.50;99.90;;;;;;5032416;28;20176;-69
2023/07/22 06:25:20;;;;;;;7.45;5.78;;;20.50;99.90;;;;;;5030479;28;20439;-68
2023/07/22 06:27:46;;;;;;;11.02;6.35;;;20.70;99.90;;;;;;5031823;28;20123;-69
2023/07/22 06:30:12;;;;;;;9.27;5.63;;;20.60;99.90;;;;;;5029975;28;20053;-68
2023/07/22 06:32:38;;;;;;;8.57;5.75;;;20.30;99.90;;;;;;5031810;28;20106;-69
2023/07/22 06:35:04;;;;;;;10.05;5.95;;;20.10;99.90;;;;;;5030860;28;20049;-68
2023/07/22 06:37:31;;;;;;;9.57;6.18;;;19.80;99.90;;;;;;5031763;28;20056;-69
2023/07/22 06:39:56;;;;;;;8.63;5.95;;;19.60;99.90;;;;;;5031531;28;20050;-69
2023/07/22 06:42:22;;;;;;;10.25;6.15;;;19.40;99.90;;;;;;5029989;28;20501;-67
2023/07/22 06:44:48;;;;;;;10.73;6.75;;;19.40;99.90;;;;;;5030439;28;20613;-68
2023/07/22 06:47:14;;;;;;;11.05;6.22;;;19.40;99.90;;;;;;5033962;28;20124;-67
2023/07/22 06:49:41;;;;;;;10.95;6.50;;;19.60;99.90;;;;;;5035418;28;20053;-68
2023/07/22 06:52:07;;;;;;;8.43;5.72;;;19.90;99.90;;;;;;5033746;28;20041;-68
2023/07/22 06:54:34;;;;;;;10.27;7.00;;;20.10;99.90;;;;;;5050665;28;20133;-68
2023/07/22 06:56:59;;;;;;;9.80;6.90;;;20.30;99.90;;;;;;5035279;28;20487;-67
2023/07/22 06:59:26;;;;;;;9.70;6.82;;;20.30;99.90;;;;;;5034758;28;20041;-67
2023/07/22 07:01:52;;;;;;;8.52;6.53;;;20.20;99.90;;;;;;5034005;28;20132;-67
2023/07/22 07:04:18;;;;;;;11.25;7.15;;;20.10;99.90;;;;;;5034775;28;20087;-67
2023/07/22 07:06:43;;;;;;;10.32;6.75;;;20.00;99.90;;;;;;5035148;28;20495;-68
2023/07/22 07:09:09;;;;;;;9.65;7.00;;;19.90;99.90;;;;;;5034617;28;20446;-67
2023/07/22 07:11:35;;;;;;;9.52;6.18;;;20.00;99.90;;;;;;5034615;28;20053;-67
2023/07/22 07:14:01;;;;;;;9.80;6.80;;;20.20;99.90;;;;;;5034826;28;20053;-67
2023/07/22 07:16:29;;;;;;;11.20;6.65;;;20.30;99.90;;;;;;5034636;28;20045;-68
2023/07/22 07:18:55;;;;;;;8.82;5.97;;;20.60;99.90;;;;;;5034650;28;20156;-67
2023/07/22 07:21:22;;;;;;;10.38;6.50;;;20.80;99.90;;;;;;5033123;28;20061;-68
2023/07/22 07:23:48;;;;;;;9.95;6.93;;;20.70;99.90;;;;;;5034563;28;20056;-68
2023/07/22 07:26:14;;;;;;;9.20;5.53;;;20.40;99.90;;;;;;5034450;28;20368;-68
2023/07/22 07:28:41;;;;;;;11.43;7.20;;;20.20;99.90;;;;;;5034975;28;20054;-68
2023/07/22 07:31:06;;;;;;;11.07;6.60;;;20.00;99.90;;;;;;5034302;28;20048;-69
2023/07/22 07:33:33;;;;;;;10.70;7.18;;;19.70;99.90;;;;;;5034294;28;20049;-67
2023/07/22 07:35:59;;;;;;;11.45;7.72;;;19.50;99.90;;;;;;5034714;28;20408;-67
2023/07/22 07:38:25;;;;;;;11.55;7.30;;;19.20;99.90;;;;;;5034122;28;20045;-68
2023/07/22 07:40:56;;;;;;;10.43;7.05;;;19.10;99.90;;;;;;5033115;28;20127;-68
2023/07/22 07:43:22;;;;;;;13.07;7.47;;;19.10;99.90;;;;;;5034053;28;20046;-67
2023/07/22 07:45:48;;;;;;;10.57;6.93;;;19.00;99.90;;;;;;5034175;28;20049;-68
2023/07/22 07:48:13;;;;;;;11.77;7.57;;;19.00;99.90;;;;;;5032750;28;20068;-68
2023/07/22 07:50:39;;;;;;;12.05;7.20;;;19.00;99.90;;;;;;5034017;28;20145;-70
2023/07/22 07:53:05;;;;;;;10.45;6.97;;;18.90;99.90;;;;;;5033998;28;20471;-68
2023/07/22 07:55:30;;;;;;;12.55;8.13;;;18.90;99.90;;;;;;5032679;28;20058;-68
2023/07/22 07:57:56;;;;;;;10.57;7.60;;;19.00;99.90;;;;;;5032535;28;20054;-68
2023/07/22 08:00:22;;;;;;;12.15;7.50;;;19.10;99.90;;;;;;5033599;28;20042;-68
2023/07/22 08:02:47;;;;;;;11.50;7.50;;;19.30;99.90;;;;;;5032738;28;20145;-68
2023/07/22 08:05:13;;;;;;;10.00;7.32;;;19.60;99.90;;;;;;5033712;28;20038;-69
2023/07/22 08:07:39;;;;;;;11.05;7.40;;;19.80;99.90;;;;;;5033126;28;20049;-68
2023/07/22 08:10:07;;;;;;;12.55;7.78;;;20.10;99.90;;;;;;5032956;28;20060;-68
2023/07/22 08:12:33;;;;;;;10.25;6.63;;;20.40;99.90;;;;;;5033490;28;20053;-68
2023/07/22 08:14:59;;;;;;;11.18;7.05;;;20.80;99.90;;;;;;5032547;28;20049;-75
2023/07/22 08:17:25;;;;;;;10.00;6.72;;;21.00;99.90;;;;;;5033725;28;20045;-73
2023/07/22 08:19:52;;;;;;;10.48;7.05;;;21.10;99.90;;;;;;5033853;28;20056;-74
2023/07/22 08:22:18;;;;;;;11.68;6.80;;;21.00;99.90;;;;;;5033628;28;20502;-75
2023/07/22 08:24:43;;;;;;;8.48;6.32;;;21.00;99.90;;;;;;5033976;28;20127;-74
2023/07/22 08:27:09;;;;;;;10.23;6.47;;;20.90;99.90;;;;;;5032128;28;20139;-74
2023/07/22 08:29:36;;;;;;;10.07;6.10;;;20.90;99.90;;;;;;5032149;28;20180;-75
2023/07/22 08:32:02;;;;;;;7.50;5.88;;;20.80;99.90;;;;;;5034109;28;20042;-75
2023/07/22 08:34:28;;;;;;;8.73;6.45;;;20.80;99.90;;;;;;5038511;28;20064;-73
2023/07/22 08:36:53;;;;;;;9.25;6.47;;;20.70;99.90;;;;;;5049082;28;20045;-72
2023/07/22 08:39:19;;;;;;;9.52;6.40;;;20.70;99.90;;;;;;5042614;28;20045;-75
2023/07/22 08:41:52;;;;;;;7.90;5.68;;;20.60;99.90;;;;;;5034243;28;20135;-74
2023/07/22 08:44:21;;;;;;;9.73;6.87;;;20.50;99.90;;;;;;5032920;28;20093;-76
2023/07/22 08:46:49;;;;;;;7.78;5.95;;;20.50;99.90;;;;;;5033353;28;20499;-75
2023/07/22 08:49:15;;;;;;;8.30;6.15;;;20.50;99.90;;;;;;5032234;28;20054;-75
2023/07/22 08:51:41;;;;;;;8.15;5.80;;;20.50;99.90;;;;;;5032741;28;20509;-74
2023/07/22 08:54:08;;;;;;;7.63;5.32;;;20.70;99.90;;;;;;5031975;28;20056;-74
2023/07/22 08:56:35;;;;;;;7.90;5.32;;;20.90;99.90;;;;;;5032704;28;20052;-73
2023/07/22 08:59:01;;;;;;;9.23;5.70;;;21.20;99.90;;;;;;5033139;28;20053;-73
2023/07/22 09:01:27;;;;;;;8.27;5.32;;;21.50;99.90;;;;;;5031451;28;20057;-75
2023/07/22 09:03:56;;;;;;;7.07;4.65;;;21.60;99.90;;;;;;5031169;28;20053;-79
2023/07/22 09:06:22;;;;;;;9.63;5.10;;;21.80;99.90;;;;;;5032564;28;20053;-76
2023/07/22 09:08:48;;;;;;;7.55;4.93;;;22.10;99.90;;;;;;5032187;28;20049;-76
2023/07/22 09:11:15;;;;;;;6.68;4.70;;;22.60;99.90;;;;;;5032724;28;20048;-74
2023/07/22 09:13:45;;;;;;;7.05;4.55;;;22.90;99.90;;;;;;5047787;28;20041;-76
2023/07/22 09:16:12;;;;;;;5.93;4.30;;;23.00;99.70;;;;;;5031192;28;20049;-75
2023/07/22 09:18:38;;;;;;;5.95;4.30;;;23.10;99.60;;;;;;5031122;28;20445;-76
2023/07/22 09:21:03;;;;;;;7.22;4.05;;;22.90;99.00;;;;;;5031345;28;20060;-76
2023/07/22 09:23:37;;;;;;;6.18;4.15;;;22.80;99.40;;;;;;5032269;28;20060;-76
2023/07/22 09:26:13;;;;;;;6.22;4.22;;;22.50;98.90;;;;;;5031616;28;20049;-75
2023/07/22 09:28:56;;;;;;;6.80;4.43;;;22.10;99.20;;;;;;5032072;28;20037;-76
2023/07/22 09:31:23;;;;;;;7.07;4.63;;;21.70;99.80;;;;;;5031383;28;20049;-79
2023/07/22 09:33:50;;;;;;;7.75;4.55;;;21.40;99.70;;;;;;5032488;28;20160;-76
2023/07/22 09:36:16;;;;;;;7.25;4.05;;;21.20;99.90;;;;;;5032416;28;20060;-76
2023/07/22 09:38:42;;;;;;;9.65;4.80;;;20.90;99.90;;;;;;5032006;28;20057;-76
2023/07/22 09:41:08;;;;;;;7.30;4.53;;;20.60;99.90;;;;;;5031997;28;20126;-76
2023/07/22 09:43:40;;;;;;;9.25;5.30;;;20.40;99.90;;;;;;5032019;28;20050;-79
2023/07/22 09:46:10;;;;;;;8.88;6.20;;;20.20;99.90;;;;;;5031348;28;20060;-78
2023/07/22 09:48:45;;;;;;;10.38;6.93;;;19.90;99.90;;;;;;5031048;28;20049;-79
2023/07/22 09:51:16;;;;;;;10.60;6.95;;;19.70;99.90;;;;;;5032680;28;20053;-78
2023/07/22 09:54:00;;;;;;;9.75;6.97;;;19.50;99.90;;;;;;5030931;28;20050;-72
2023/07/22 09:56:25;;;;;;;9.77;6.53;;;19.40;99.90;;;;;;5031946;28;20053;-78
2023/07/22 09:58:52;;;;;;;10.70;6.97;;;19.30;99.90;;;;;;5013992;28;20128;-77
2023/07/22 10:01:24;;;;;;;9.48;6.85;;;19.30;99.90;;;;;;5032219;28;20091;-77
2023/07/22 10:03:56;;;;;;;8.25;6.50;;;19.30;99.90;;;;;;5031368;28;20049;-77
2023/07/22 10:06:27;;;;;;;7.85;5.85;;;19.20;99.90;;;;;;5032086;28;20403;-77
2023/07/22 10:09:01;;;;;;;9.27;6.13;;;19.10;99.90;;;;;;5031943;28;20056;-77
2023/07/22 10:11:28;;;;;;;10.47;6.17;;;19.10;99.90;;;;;;5032239;28;20087;-77
2023/07/22 10:13:55;;;;;;;8.27;6.03;;;19.10;99.90;;;;;;5030706;28;20288;-77
2023/07/22 10:16:23;;;;;;;7.25;5.45;;;19.10;99.90;;;;;;5047435;28;20037;-77
2023/07/22 10:18:49;;;;;;;7.43;5.32;;;19.10;99.90;;;;;;5031147;28;20080;-77
2023/07/22 10:21:15;;;;;;;9.02;5.68;;;19.10;99.90;;;;;;5032844;28;20148;-76
2023/07/22 10:23:42;;;;;;;9.68;5.75;;;19.10;99.90;;;;;;5035696;28;20115;-76
2023/07/22 10:26:10;;;;;;;9.07;6.20;;;19.10;99.90;;;;;;5051397;28;20050;-76
2023/07/22 10:28:37;;;;;;;9.13;6.20;;;19.10;99.90;;;;;;5035220;28;20131;-77
2023/07/22 10:31:03;;;;;;;9.55;5.90;;;19.10;99.90;;;;;;5035581;28;20047;-77
2023/07/22 10:33:29;;;;;;;11.20;6.47;;;19.10;99.90;;;;;;5035696;28;20041;-79
2023/07/22 10:36:16;;;;;;;10.48;6.93;;;19.10;99.90;;;;;;5017834;28;20049;-78
2023/07/22 10:38:42;;;;;;;8.43;6.22;;;19.10;99.90;;;;;;5035545;28;20049;-79
2023/07/22 10:41:13;;;;;;;8.43;6.32;;;19.10;99.90;;;;;;5036066;28;20501;-80
2023/07/22 10:43:40;;;;;;;8.90;6.45;;;19.10;99.90;;;;;;5035188;28;20122;-79
2023/07/22 10:46:12;;;;;;;8.80;6.15;;;19.00;99.90;;;;;;5035659;28;20045;-78
2023/07/22 10:48:41;;;;;;;7.80;5.93;;;19.10;99.90;;;;;;5035368;28;20282;-78
2023/07/22 10:51:12;;;;;;;9.43;6.50;;;19.10;99.90;;;;;;5037181;28;20104;-79
2023/07/22 10:53:42;;;;;;;8.00;6.47;;;19.20;99.90;;;;;;5058472;28;20103;-78
2023/07/22 10:56:14;;;;;;;12.27;6.88;;;19.20;99.90;;;;;;5044881;28;20084;-78
2023/07/22 10:58:46;;;;;;;10.15;6.15;;;19.10;99.90;;;;;;5041777;28;20092;-79
2023/07/22 11:01:24;;;;;;;10.35;6.43;;;19.20;99.90;;;;;;5035840;28;20502;-79
2023/07/22 11:04:15;;;;;;;8.30;6.10;;;19.10;99.90;;;;;;5034352;28;20049;-77
2023/07/22 11:06:43;;;;;;;8.02;5.28;;;19.00;99.90;;;;;;5034103;28;20045;-78
2023/07/22 11:09:27;;;;;;;8.60;5.88;;;19.00;99.90;;;;;;5033885;28;20065;-79
2023/07/22 11:12:01;;;;;;;9.23;6.20;;;18.90;99.90;;;;;;5034478;28;20045;-78
2023/07/22 11:14:32;;;;;;;8.48;5.78;;;18.80;99.90;;;;;;5034889;28;20084;-78
2023/07/22 11:17:00;;;;;;;9.05;5.38;;;18.80;99.90;;;;;;5034756;28;20217;-78
2023/07/22 11:19:27;;;;;;;8.77;5.00;;;18.70;99.90;;;;;;5034314;28;20087;-77
2023/07/22 11:21:54;;;;;;;6.53;4.93;;;18.60;99.90;;;;;;5033734;28;20057;-77
2023/07/22 11:24:20;;;;;;;6.78;5.03;;;18.60;99.90;;;;;;5033183;28;20084;-76
2023/07/22 11:26:47;;;;;;;7.13;4.45;;;18.60;99.90;;;;;;5034109;28;20072;-78
2023/07/22 11:29:14;;;;;;;9.15;4.25;;;18.50;99.90;;;;;;5035014;28;20050;-75
2023/07/22 11:31:45;;;;;;;6.95;4.80;;;18.50;99.90;;;;;;5032177;28;20053;-74
2023/07/22 11:34:22;;;;;;;7.55;5.07;;;18.50;99.90;;;;;;5033585;28;20506;-76
2023/07/22 11:36:50;;;;;;;7.72;4.95;;;18.40;99.90;;;;;;5033843;28;20068;-71
2023/07/22 11:39:20;;;;;;;8.27;4.88;;;18.50;99.90;;;;;;5034799;28;20049;-73
2023/07/22 11:41:48;;;;;;;6.25;4.18;;;18.40;99.90;;;;;;5033751;28;20042;-73
2023/07/22 11:44:16;;;;;;;6.45;4.18;;;18.40;99.90;;;;;;5033888;28;20379;-72
2023/07/22 11:46:56;;;;;;;7.65;4.50;;;18.40;99.90;;;;;;5033695;28;20111;-77
2023/07/22 11:49:30;;;;;;;5.90;4.80;;;18.40;99.90;;;;;;5033902;28;20041;-74
2023/07/22 11:52:00;;;;;;;8.38;5.45;;;18.40;99.90;;;;;;5033856;28;20128;-73
2023/07/22 11:54:27;;;;;;;7.43;5.70;;;18.40;99.90;;;;;;5032916;28;20052;-78
2023/07/22 11:56:53;;;;;;;7.80;5.85;;;18.40;99.90;;;;;;5032346;28;20049;-74
2023/07/22 11:59:34;;;;;;;7.32;6.22;;;18.30;99.90;;;;;;5033590;28;20054;-74
2023/07/22 12:02:01;;;;;;;7.95;6.30;;;18.30;99.90;;;;;;5031191;28;20049;-74
2023/07/22 12:04:27;;;;;;;10.38;7.18;;;18.30;99.90;;;;;;5032907;28;20091;-76
2023/07/22 12:06:53;;;;;;;10.15;6.60;;;18.30;99.90;;;;;;5032585;28;20134;-73
2023/07/22 12:09:19;;;;;;;9.30;6.88;;;18.40;99.90;;;;;;5032070;28;20041;-74
2023/07/22 12:11:44;;;;;;;10.05;7.13;;;18.40;99.90;;;;;;5033499;28;20485;-78
2023/07/22 12:14:14;;;;;;;9.98;7.25;;;18.50;99.90;;;;;;5032610;28;20053;-74
2023/07/22 12:16:42;;;;;;;9.48;7.30;;;18.50;99.90;;;;;;5016292;28;20568;-75
2023/07/22 12:19:09;;;;;;;11.00;7.55;;;18.50;99.90;;;;;;5033531;28;20372;-73
2023/07/22 12:21:35;;;;;;;8.60;6.65;;;18.50;99.90;;;;;;5031660;28;20126;-76
2023/07/22 12:24:04;;;;;;;9.40;7.13;;;18.40;99.90;;;;;;5033144;28;20188;-73
2023/07/22 12:26:30;;;;;;;11.00;7.90;;;18.40;99.90;;;;;;5033669;28;20053;-73
2023/07/22 12:28:55;;;;;;;9.25;6.78;;;18.40;99.90;;;;;;5033206;28;20077;-71
2023/07/22 12:31:21;;;;;;;10.68;7.57;;;18.20;99.90;;;;;;5032981;28;20045;-71
2023/07/22 12:33:47;;;;;;;10.60;7.05;;;18.30;99.90;;;;;;5033070;28;20045;-77
2023/07/22 12:36:13;;;;;;;9.18;7.78;;;18.20;99.90;;;;;;5033008;28;20049;-75
2023/07/22 12:38:38;;;;;;;10.35;7.60;;;18.10;99.90;;;;;;5032388;28;20045;-78
2023/07/22 12:41:04;;;;;;;8.80;6.82;;;18.20;99.90;;;;;;5032012;28;20136;-70
2023/07/22 12:43:33;;;;;;;9.95;8.18;;;18.30;99.90;;;;;;5031918;28;20041;-70